Genco Auvergne — V7ES3 — position and weather

sailwx.info

Track history (hours):
 
Tides and Currents Weather Stations Pressure Air Temp Water Temp Dewpoint Dewpoint Depression Visibility Wind Speed Wind Dir Waves Ship Positions

Genco Auvergne

Last reported at 2014-Jul-25 05:15 UTC. Time now 2014-Aug-01 03:49 UTC.
Position S 28°35' E 032°26'.

Length 190 m; draft 6.6 m.

Type: Cargo ship. MMSI: 538002570.

Date/timePositionNaut miles runAvg speedWind from/ knotsBaromVisibWave heightAir tempDewpointWater temp
2014-Jul-25 05:15S 28°35' E 032°26'6 7.9
2014-Jul-25 04:31S 28°40' E 032°22'10 9.2
2014-Jul-25 03:26S 28°47' E 032°15'7 7.6
2014-Jul-25 02:34S 28°49' E 032°07'  
2014-Jul-22 16:28S 28°55' E 032°08'0 0.0
2014-Jul-22 15:10S 28°55' E 032°07'0 0.0
2014-Jul-22 12:28S 28°55' E 032°08'0 0.0
2014-Jul-22 11:22S 28°55' E 032°08'  
2014-Jul-18 01:16S 28°55' E 032°07'0 0.0
2014-Jul-18 00:22S 28°55' E 032°08'0 0.2
2014-Jul-17 23:22S 28°55' E 032°08'0 0.0
2014-Jul-17 22:28S 28°55' E 032°08'0 0.0
2014-Jul-17 21:10S 28°55' E 032°08'0 0.0
2014-Jul-17 19:04S 28°55' E 032°08'0 0.0
2014-Jul-17 17:10S 28°55' E 032°08'0 0.0
2014-Jul-17 16:16S 28°55' E 032°07'0 0.0
2014-Jul-17 15:28S 28°55' E 032°08'0 0.0
2014-Jul-17 14:28S 28°55' E 032°07'0 0.1
2014-Jul-17 13:28S 28°55' E 032°08'0 0.0
2014-Jul-17 11:28S 28°55' E 032°08'0 0.0
2014-Jul-17 03:28S 28°55' E 032°08'0 0.0
2014-Jul-17 02:22S 28°55' E 032°08'0 0.0
2014-Jul-17 01:22S 28°55' E 032°08'0 0.0
2014-Jul-17 00:28S 28°55' E 032°08'0 0.0
2014-Jul-16 23:28S 28°55' E 032°08'0 0.0
2014-Jul-16 22:28S 28°55' E 032°08'0 0.0
2014-Jul-16 21:28S 28°55' E 032°08'0 0.0
2014-Jul-16 20:28S 28°55' E 032°08'0 0.0
2014-Jul-16 19:22S 28°55' E 032°08'0 0.0
2014-Jul-16 18:28S 28°55' E 032°08'0 0.0
2014-Jul-16 17:22S 28°55' E 032°08'0 0.0
2014-Jul-16 16:22S 28°55' E 032°08'0 0.0
2014-Jul-16 15:28S 28°55' E 032°08'0 0.0
2014-Jul-16 14:28S 28°55' E 032°08'0 0.0
2014-Jul-16 13:28S 28°55' E 032°08'0 0.0
2014-Jul-16 12:28S 28°55' E 032°08'0 0.0
2014-Jul-16 11:22S 28°55' E 032°08'0 0.0
2014-Jul-16 10:22S 28°55' E 032°08'0 0.0
2014-Jul-16 06:22S 28°55' E 032°08'  
Track history (hours):
 
Tides and Currents Weather Stations Pressure Air Temp Water Temp Dewpoint Dewpoint Depression Visibility Wind Speed Wind Dir Waves Ship Positions

Genco Auvergne

Last reported at 2014-Jul-25 05:15 UTC. Time now 2014-Aug-01 03:49 UTC.
Position S 28°35' E 032°26'.

Length 190 m; draft 6.6 m.

Type: Cargo ship. MMSI: 538002570.

Date/timePositionNaut miles runAvg speedWind from/ knotsBaromVisibWave heightAir tempDewpointWater temp
2014-Jul-25 05:15S 28°35' E 032°26'6 7.9
2014-Jul-25 04:31S 28°40' E 032°22'10 9.2
2014-Jul-25 03:26S 28°47' E 032°15'7 7.6
2014-Jul-25 02:34S 28°49' E 032°07'  
2014-Jul-22 16:28S 28°55' E 032°08'0 0.0
2014-Jul-22 15:10S 28°55' E 032°07'0 0.0
2014-Jul-22 12:28S 28°55' E 032°08'0 0.0
2014-Jul-22 11:22S 28°55' E 032°08'  
2014-Jul-18 01:16S 28°55' E 032°07'0 0.0
2014-Jul-18 00:22S 28°55' E 032°08'0 0.2
2014-Jul-17 23:22S 28°55' E 032°08'0 0.0
2014-Jul-17 22:28S 28°55' E 032°08'0 0.0
2014-Jul-17 21:10S 28°55' E 032°08'0 0.0
2014-Jul-17 19:04S 28°55' E 032°08'0 0.0
2014-Jul-17 17:10S 28°55' E 032°08'0 0.0
2014-Jul-17 16:16S 28°55' E 032°07'0 0.0
2014-Jul-17 15:28S 28°55' E 032°08'0 0.0
2014-Jul-17 14:28S 28°55' E 032°07'0 0.1
2014-Jul-17 13:28S 28°55' E 032°08'0 0.0
2014-Jul-17 11:28S 28°55' E 032°08'0 0.0
2014-Jul-17 03:28S 28°55' E 032°08'0 0.0
2014-Jul-17 02:22S 28°55' E 032°08'0 0.0
2014-Jul-17 01:22S 28°55' E 032°08'0 0.0
2014-Jul-17 00:28S 28°55' E 032°08'0 0.0
2014-Jul-16 23:28S 28°55' E 032°08'0 0.0
2014-Jul-16 22:28S 28°55' E 032°08'0 0.0
2014-Jul-16 21:28S 28°55' E 032°08'0 0.0
2014-Jul-16 20:28S 28°55' E 032°08'0 0.0
2014-Jul-16 19:22S 28°55' E 032°08'0 0.0
2014-Jul-16 18:28S 28°55' E 032°08'0 0.0
2014-Jul-16 17:22S 28°55' E 032°08'0 0.0
2014-Jul-16 16:22S 28°55' E 032°08'0 0.0
2014-Jul-16 15:28S 28°55' E 032°08'0 0.0
2014-Jul-16 14:28S 28°55' E 032°08'0 0.0
2014-Jul-16 13:28S 28°55' E 032°08'0 0.0
2014-Jul-16 12:28S 28°55' E 032°08'0 0.0
2014-Jul-16 11:22S 28°55' E 032°08'0 0.0
2014-Jul-16 10:22S 28°55' E 032°08'0 0.0
2014-Jul-16 06:22S 28°55' E 032°08'  

Dump ship's entire track history